Terminal Aerodrome Forecast
Issued by NWS Memphis, TN

Home | Current Version | Previous Version | Text Only | Print | Product List | Glossary On
Versions: 1 2 3 4 5 6 7 8 9 10 11 12 13 14 15 16 17 18 19 20 21 22 23 24 25 26 27 28 29 30 31 32 33
999
FTUS44 KMEG 282025 AAB
TAFMEM
TAF AMD
KMEM 282025Z 2820/2918 22008KT P6SM VCTS SCT035CB BKN045
     FM282300 24007KT P6SM FEW050 SCT250
     FM290800 22004KT P6SM VCSH SCT008 BKN025
      TEMPO 2911/2914 6SM -TSRA BR BKN008 OVC025CB=

USA.gov is the U.S. government's official web portal to all federal, state and local government web resources and services.